createdAt,value
2022-09-03T00:00:03.420Z,979.13
2022-09-03T00:01:03.408Z,979.19
2022-09-03T00:02:03.415Z,979.19
2022-09-03T00:03:03.602Z,979.13
2022-09-03T00:04:03.441Z,979.02
2022-09-03T00:05:03.385Z,979.13
2022-09-03T00:06:03.418Z,979.25
2022-09-03T00:07:03.556Z,979.16
2022-09-03T00:08:03.601Z,979.16
2022-09-03T00:09:03.441Z,979.22
2022-09-03T00:10:03.753Z,979.16
2022-09-03T00:11:03.809Z,979.19
2022-09-03T00:12:03.794Z,979.16
2022-09-03T00:13:03.931Z,979.16
2022-09-03T00:14:03.849Z,979.16
2022-09-03T00:15:02.974Z,979.16
2022-09-03T00:16:03.101Z,979.05
2022-09-03T00:17:03.053Z,979.25
2022-09-03T00:18:03.116Z,979.11
2022-09-03T00:19:03.095Z,979.13
2022-09-03T00:20:03.081Z,979.08
2022-09-03T00:21:03.088Z,979.22
2022-09-03T00:22:03.163Z,979.05
2022-09-03T00:23:03.170Z,979.19
2022-09-03T00:24:03.275Z,979.05
2022-09-03T00:25:03.352Z,979.08
2022-09-03T00:26:03.346Z,979.19
2022-09-03T00:27:03.333Z,979.08
2022-09-03T00:28:03.287Z,979.08
2022-09-03T00:29:03.351Z,979.14
2022-09-03T00:30:03.418Z,979.08
2022-09-03T00:31:03.484Z,979.08
2022-09-03T00:32:03.422Z,979.14
2022-09-03T00:33:03.318Z,979.11
2022-09-03T00:34:03.466Z,979.08
2022-09-03T00:35:03.433Z,979.11
2022-09-03T00:36:03.015Z,979.14
2022-09-03T00:37:04.044Z,979.16
2022-09-03T00:38:03.099Z,979.16
2022-09-03T00:39:03.167Z,979.08
2022-09-03T00:40:03.415Z,979.28
2022-09-03T00:41:03.350Z,979.11
2022-09-03T00:42:03.467Z,979.11
2022-09-03T00:43:03.504Z,979.08
2022-09-03T00:44:03.638Z,979.22
2022-09-03T00:45:03.734Z,979.14
2022-09-03T00:46:03.787Z,979.25
2022-09-03T00:47:03.704Z,979.14
2022-09-03T00:48:03.754Z,979.22
2022-09-03T00:49:03.698Z,979.17
2022-09-03T00:50:03.740Z,979.14
2022-09-03T00:51:03.739Z,979.17
2022-09-03T00:52:03.799Z,979.22
2022-09-03T00:53:03.841Z,979.20
2022-09-03T00:54:03.728Z,979.26
2022-09-03T00:55:03.681Z,979.20
2022-09-03T00:56:03.862Z,979.26
2022-09-03T00:57:03.855Z,979.23
2022-09-03T00:58:03.920Z,979.26
2022-09-03T00:59:02.900Z,979.23
2022-09-03T01:00:02.989Z,979.20
2022-09-03T01:01:03.014Z,979.31
2022-09-03T01:02:03.392Z,979.29
2022-09-03T01:03:03.053Z,979.37
2022-09-03T01:04:03.118Z,979.32
2022-09-03T01:05:03.031Z,979.23
2022-09-03T01:06:03.107Z,979.32
2022-09-03T01:07:03.169Z,979.15
2022-09-03T01:08:03.204Z,979.15
2022-09-03T01:09:03.132Z,979.26
2022-09-03T01:10:03.302Z,979.35
2022-09-03T01:11:03.241Z,979.20
2022-09-03T01:12:03.290Z,979.29
2022-09-03T01:13:03.671Z,979.26
2022-09-03T01:14:03.771Z,979.20
2022-09-03T01:15:03.685Z,979.26
2022-09-03T01:16:03.947Z,979.23
2022-09-03T01:17:03.927Z,979.21
2022-09-03T01:18:02.945Z,979.12
2022-09-03T01:19:03.329Z,979.18
2022-09-03T01:20:03.267Z,979.18
2022-09-03T01:21:03.340Z,979.15
2022-09-03T01:22:03.359Z,979.15
2022-09-03T01:23:03.427Z,979.12
2022-09-03T01:24:03.423Z,979.12
2022-09-03T01:25:03.410Z,979.12
2022-09-03T01:26:03.422Z,979.09
2022-09-03T01:27:03.448Z,979.09
2022-09-03T01:28:03.456Z,979.18
2022-09-03T01:29:03.530Z,979.12
2022-09-03T01:30:03.673Z,978.98
2022-09-03T01:31:03.874Z,979.12
2022-09-03T01:32:03.780Z,979.18
2022-09-03T01:33:03.799Z,979.21
2022-09-03T01:34:03.793Z,979.13
2022-09-03T01:35:03.805Z,979.13
2022-09-03T01:36:03.828Z,979.07
2022-09-03T01:37:02.954Z,979.24
2022-09-03T01:38:03.138Z,979.10
2022-09-03T01:39:03.270Z,979.10
2022-09-03T01:40:03.225Z,979.13
2022-09-03T01:41:03.130Z,979.07
2022-09-03T01:42:03.209Z,979.10
2022-09-03T01:43:03.238Z,979.13
2022-09-03T01:44:03.416Z,979.04
2022-09-03T01:45:03.378Z,979.15
2022-09-03T01:46:03.429Z,978.96
2022-09-03T01:47:03.496Z,979.10
2022-09-03T01:48:03.510Z,978.93
2022-09-03T01:49:03.514Z,979.19
2022-09-03T01:50:03.543Z,978.99
2022-09-03T01:51:03.613Z,978.96
2022-09-03T01:52:03.800Z,979.16
2022-09-03T01:53:03.742Z,978.99
2022-09-03T01:54:03.915Z,979.02
2022-09-03T01:55:02.965Z,979.02
2022-09-03T01:56:02.944Z,978.99
2022-09-03T01:57:04.522Z,979.13
2022-09-03T01:58:02.917Z,978.96
2022-09-03T01:59:03.067Z,979.08
2022-09-03T02:00:03.221Z,979.10
2022-09-03T02:01:03.225Z,979.13
2022-09-03T02:02:03.293Z,978.99
2022-09-03T02:03:03.355Z,979.02
2022-09-03T02:04:03.256Z,978.99
2022-09-03T02:05:03.232Z,979.02
2022-09-03T02:06:03.253Z,978.99
2022-09-03T02:07:03.184Z,979.05
2022-09-03T02:08:03.370Z,978.99
2022-09-03T02:09:03.227Z,978.99
2022-09-03T02:10:03.275Z,978.96
2022-09-03T02:11:03.984Z,979.05
2022-09-03T02:12:03.521Z,979.02
2022-09-03T02:13:03.510Z,979.11
2022-09-03T02:14:03.479Z,979.05
2022-09-03T02:15:03.570Z,979.02
2022-09-03T02:16:03.812Z,979.02
2022-09-03T02:17:03.808Z,979.02
2022-09-03T02:18:03.841Z,979.08
2022-09-03T02:19:03.908Z,979.02
2022-09-03T02:20:03.802Z,979.08
2022-09-03T02:21:02.967Z,978.99
2022-09-03T02:22:02.891Z,978.94
2022-09-03T02:23:02.989Z,978.97
2022-09-03T02:24:02.945Z,978.94
2022-09-03T02:25:03.014Z,979.00
2022-09-03T02:26:03.775Z,979.05
2022-09-03T02:27:03.760Z,978.80
2022-09-03T02:28:03.859Z,978.88
2022-09-03T02:29:02.952Z,978.91
2022-09-03T02:30:02.955Z,978.91
2022-09-03T02:31:03.223Z,978.91
2022-09-03T02:32:03.734Z,978.91
2022-09-03T02:33:03.618Z,978.83
2022-09-03T02:34:03.742Z,978.89
2022-09-03T02:35:03.754Z,978.86
2022-09-03T02:36:03.721Z,978.83
2022-09-03T02:37:03.802Z,979.00
2022-09-03T02:38:03.782Z,978.83
2022-09-03T02:39:03.818Z,978.97
2022-09-03T02:40:03.130Z,978.77
2022-09-03T02:41:03.048Z,978.66
2022-09-03T02:42:03.019Z,978.69
2022-09-03T02:43:03.055Z,978.83
2022-09-03T02:44:03.171Z,978.89
2022-09-03T02:45:03.151Z,978.75
2022-09-03T02:46:03.227Z,978.72
2022-09-03T02:47:03.062Z,978.75
2022-09-03T02:48:03.157Z,978.75
2022-09-03T02:49:03.164Z,978.60
2022-09-03T02:50:03.026Z,978.72
2022-09-03T02:51:14.639Z,978.75
2022-09-03T02:52:03.185Z,978.66
2022-09-03T02:53:03.145Z,978.69
2022-09-03T02:54:03.089Z,978.66
2022-09-03T02:55:03.182Z,978.63
2022-09-03T02:56:03.158Z,978.58
2022-09-03T02:57:03.093Z,978.72
2022-09-03T02:58:03.212Z,978.60
2022-09-03T02:59:03.186Z,978.58
2022-09-03T03:00:03.293Z,978.63
2022-09-03T03:01:03.308Z,978.63
2022-09-03T03:02:03.474Z,978.72
2022-09-03T03:03:03.323Z,978.63
2022-09-03T03:04:03.410Z,978.72
2022-09-03T03:05:03.468Z,978.63
2022-09-03T03:06:03.444Z,978.61
2022-09-03T03:07:03.535Z,978.61
2022-09-03T03:08:03.488Z,978.66
2022-09-03T03:09:03.601Z,978.66
2022-09-03T03:10:03.673Z,978.63
2022-09-03T03:11:03.654Z,978.66
2022-09-03T03:12:03.649Z,978.66
2022-09-03T03:13:03.715Z,978.66
2022-09-03T03:14:03.762Z,978.66
2022-09-03T03:15:03.729Z,978.69
2022-09-03T03:16:03.670Z,978.58
2022-09-03T03:17:03.925Z,978.55
2022-09-03T03:18:03.930Z,978.69
2022-09-03T03:19:02.887Z,978.66
2022-09-03T03:20:03.108Z,978.52
2022-09-03T03:21:03.003Z,978.78
2022-09-03T03:22:03.125Z,978.78
2022-09-03T03:23:03.239Z,978.72
2022-09-03T03:24:03.166Z,978.72
2022-09-03T03:25:03.223Z,978.58
2022-09-03T03:26:03.319Z,978.69
2022-09-03T03:27:03.249Z,978.66
2022-09-03T03:28:03.320Z,978.46
2022-09-03T03:29:03.426Z,978.63
2022-09-03T03:30:03.436Z,978.44
2022-09-03T03:31:03.570Z,978.46
2022-09-03T03:32:03.445Z,978.58
2022-09-03T03:33:03.512Z,978.55
2022-09-03T03:34:03.526Z,978.52
2022-09-03T03:35:03.485Z,978.61
2022-09-03T03:36:03.564Z,978.52
2022-09-03T03:37:03.613Z,978.46
2022-09-03T03:38:03.666Z,978.55
2022-09-03T03:39:03.797Z,978.63
2022-09-03T03:40:04.066Z,978.58
2022-09-03T03:41:03.878Z,978.52
2022-09-03T03:42:03.017Z,978.55
2022-09-03T03:43:02.962Z,978.63
2022-09-03T03:44:03.150Z,978.55
2022-09-03T03:45:03.228Z,978.69
2022-09-03T03:46:03.437Z,978.52
2022-09-03T03:47:03.367Z,978.55
2022-09-03T03:48:03.481Z,978.55
2022-09-03T03:49:03.538Z,978.52
2022-09-03T03:50:03.526Z,978.39
2022-09-03T03:51:03.640Z,978.49
2022-09-03T03:52:03.748Z,978.58
2022-09-03T03:53:03.870Z,978.46
2022-09-03T03:54:05.966Z,978.44
2022-09-03T03:55:02.996Z,978.52
2022-09-03T03:56:02.922Z,978.39
2022-09-03T03:57:02.970Z,978.44
2022-09-03T03:58:03.050Z,978.46
2022-09-03T03:59:03.040Z,978.30
2022-09-03T04:00:03.122Z,978.52
2022-09-03T04:01:03.401Z,978.58
2022-09-03T04:02:03.360Z,978.55
2022-09-03T04:03:03.276Z,978.44
2022-09-03T04:04:03.187Z,978.47
2022-09-03T04:05:03.238Z,978.47
2022-09-03T04:06:03.271Z,978.42
2022-09-03T04:07:03.383Z,978.44
2022-09-03T04:08:03.413Z,978.46
2022-09-03T04:09:03.302Z,978.44
2022-09-03T04:10:03.410Z,978.33
2022-09-03T04:11:03.480Z,978.55
2022-09-03T04:12:03.538Z,978.46
2022-09-03T04:13:03.678Z,978.52
2022-09-03T04:14:03.775Z,978.52
2022-09-03T04:15:03.774Z,978.46
2022-09-03T04:16:03.793Z,978.44
2022-09-03T04:17:04.012Z,978.63
2022-09-03T04:18:03.843Z,978.58
2022-09-03T04:19:03.075Z,978.55
2022-09-03T04:20:03.125Z,978.44
2022-09-03T04:21:03.123Z,978.55
2022-09-03T04:22:03.232Z,978.44
2022-09-03T04:23:03.174Z,978.39
2022-09-03T04:24:03.271Z,978.36
2022-09-03T04:25:03.970Z,978.52
2022-09-03T04:26:04.276Z,978.42
2022-09-03T04:27:03.188Z,978.42
2022-09-03T04:28:03.754Z,978.33
2022-09-03T04:29:04.041Z,978.44
2022-09-03T04:30:04.780Z,978.44
2022-09-03T04:31:03.634Z,978.42
2022-09-03T04:32:03.710Z,978.39
2022-09-03T04:33:03.718Z,978.46
2022-09-03T04:34:03.693Z,978.52
2022-09-03T04:35:03.686Z,978.36
2022-09-03T04:36:03.635Z,978.46
2022-09-03T04:37:03.744Z,978.39
2022-09-03T04:38:03.719Z,978.30
2022-09-03T04:39:04.239Z,978.39
2022-09-03T04:40:03.823Z,978.42
2022-09-03T04:41:03.691Z,978.44
2022-09-03T04:42:03.888Z,978.36
2022-09-03T04:43:02.947Z,978.39
2022-09-03T04:44:03.028Z,978.39
2022-09-03T04:45:03.000Z,978.39
2022-09-03T04:46:03.390Z,978.52
2022-09-03T04:47:03.154Z,978.36
2022-09-03T04:48:03.082Z,978.33
2022-09-03T04:49:03.193Z,978.58
2022-09-03T04:50:03.198Z,978.33
2022-09-03T04:51:03.305Z,978.55
2022-09-03T04:52:03.264Z,978.33
2022-09-03T04:53:08.378Z,978.33
2022-09-03T04:54:03.272Z,978.44
2022-09-03T04:55:03.268Z,978.55
2022-09-03T04:56:03.301Z,978.55
2022-09-03T04:57:03.375Z,978.49
2022-09-03T04:58:03.403Z,978.52
2022-09-03T04:59:03.308Z,978.66
2022-09-03T05:00:03.340Z,978.69
2022-09-03T05:01:03.535Z,978.72
2022-09-03T05:02:03.563Z,978.66
2022-09-03T05:03:03.648Z,978.55
2022-09-03T05:04:03.573Z,978.60
2022-09-03T05:05:03.575Z,978.66
2022-09-03T05:06:03.662Z,978.52
2022-09-03T05:07:03.687Z,978.69
2022-09-03T05:08:03.706Z,978.57
2022-09-03T05:09:03.813Z,978.57
2022-09-03T05:10:02.967Z,978.74
2022-09-03T05:11:02.973Z,978.60
2022-09-03T05:12:02.976Z,978.63
2022-09-03T05:13:03.128Z,978.57
2022-09-03T05:14:03.265Z,978.54
2022-09-03T05:15:03.300Z,978.65
2022-09-03T05:16:03.429Z,978.56
2022-09-03T05:17:03.470Z,978.59
2022-09-03T05:18:03.412Z,978.56
2022-09-03T05:19:03.163Z,978.64
2022-09-03T05:20:03.281Z,978.66
2022-09-03T05:21:03.357Z,978.60
2022-09-03T05:22:03.340Z,978.62
2022-09-03T05:23:03.324Z,978.53
2022-09-03T05:24:03.548Z,978.58
2022-09-03T05:25:03.550Z,978.54
2022-09-03T05:26:03.565Z,978.43
2022-09-03T05:27:03.681Z,978.53
2022-09-03T05:28:03.868Z,978.47
2022-09-03T05:29:03.829Z,978.52
2022-09-03T05:30:03.813Z,978.43
2022-09-03T05:31:03.919Z,978.42
2022-09-03T05:32:03.032Z,978.49
2022-09-03T05:33:02.955Z,978.63
2022-09-03T05:34:03.218Z,978.71
2022-09-03T05:35:03.094Z,978.61
2022-09-03T05:36:03.057Z,978.61
2022-09-03T05:37:03.162Z,978.74
2022-09-03T05:38:03.480Z,978.85
2022-09-03T05:39:03.533Z,978.73
2022-09-03T05:40:03.745Z,978.98
2022-09-03T05:41:03.733Z,979.01
2022-09-03T05:42:03.699Z,978.97
2022-09-03T05:43:08.753Z,978.91
2022-09-03T05:44:03.137Z,978.88
2022-09-03T05:45:03.137Z,979.04
2022-09-03T05:46:03.475Z,978.95
2022-09-03T05:47:03.211Z,979.18
2022-09-03T05:48:03.219Z,979.18
2022-09-03T05:49:03.396Z,979.16
2022-09-03T05:50:03.300Z,979.33
2022-09-03T05:51:03.388Z,979.25
2022-09-03T05:52:03.499Z,979.28
2022-09-03T05:53:03.587Z,979.31
2022-09-03T05:54:03.680Z,979.37
2022-09-03T05:55:03.707Z,979.37
2022-09-03T05:56:03.709Z,979.37
2022-09-03T05:57:03.775Z,979.49
2022-09-03T05:58:03.864Z,979.40
2022-09-03T05:59:03.829Z,979.51
2022-09-03T06:00:03.808Z,979.46
2022-09-03T06:01:02.897Z,979.46
2022-09-03T06:02:03.467Z,979.60
2022-09-03T06:03:03.586Z,979.49
2022-09-03T06:04:03.444Z,979.60
2022-09-03T06:05:03.534Z,979.69
2022-09-03T06:06:03.525Z,979.61
2022-09-03T06:07:03.434Z,979.66
2022-09-03T06:08:03.457Z,979.55
2022-09-03T06:09:03.547Z,979.50
2022-09-03T06:10:03.496Z,979.61
2022-09-03T06:11:03.504Z,979.59
2022-09-03T06:12:04.643Z,979.50
2022-09-03T06:13:03.661Z,979.68
2022-09-03T06:14:03.724Z,979.68
2022-09-03T06:15:03.861Z,979.76
2022-09-03T06:16:03.898Z,979.76
2022-09-03T06:17:04.006Z,979.65
2022-09-03T06:18:02.906Z,979.74
2022-09-03T06:19:03.068Z,979.77
2022-09-03T06:20:03.045Z,979.77
2022-09-03T06:21:03.183Z,979.77
2022-09-03T06:22:03.255Z,979.87
2022-09-03T06:23:03.307Z,979.77
2022-09-03T06:24:03.325Z,979.83
2022-09-03T06:25:03.394Z,979.74
2022-09-03T06:26:05.808Z,979.82
2022-09-03T06:27:03.387Z,979.74
2022-09-03T06:28:03.590Z,979.79
2022-09-03T06:29:03.575Z,979.76
2022-09-03T06:30:03.525Z,979.75
2022-09-03T06:31:03.561Z,979.72
2022-09-03T06:32:03.786Z,979.66
2022-09-03T06:33:03.615Z,979.74
2022-09-03T06:34:04.660Z,979.82
2022-09-03T06:35:03.764Z,979.76
2022-09-03T06:36:08.764Z,979.73
2022-09-03T06:37:03.728Z,979.64
2022-09-03T06:38:04.171Z,979.64
2022-09-03T06:39:03.807Z,979.72
2022-09-03T06:40:04.102Z,979.77
2022-09-03T06:41:03.886Z,979.69
2022-09-03T06:42:03.865Z,979.71
2022-09-03T06:43:03.004Z,979.80
2022-09-03T06:44:03.371Z,979.87
2022-09-03T06:45:03.261Z,979.83
2022-09-03T06:46:03.558Z,979.86
2022-09-03T06:47:03.362Z,979.91
2022-09-03T06:48:03.513Z,979.77
2022-09-03T06:49:03.412Z,979.86
2022-09-03T06:50:03.563Z,979.86
2022-09-03T06:51:04.613Z,979.80
2022-09-03T06:52:03.755Z,979.77
2022-09-03T06:53:03.685Z,979.88
2022-09-03T06:54:03.778Z,979.86
2022-09-03T06:55:03.685Z,979.86
2022-09-03T06:56:03.706Z,979.91
2022-09-03T06:57:03.796Z,979.88
2022-09-03T06:58:03.854Z,979.90
2022-09-03T06:59:02.984Z,979.83
2022-09-03T07:00:03.029Z,979.82
2022-09-03T07:01:03.380Z,979.82
2022-09-03T07:02:03.512Z,979.82
2022-09-03T07:03:03.085Z,979.95
2022-09-03T07:04:03.801Z,979.86
2022-09-03T07:05:03.236Z,979.84
2022-09-03T07:06:03.154Z,979.92
2022-09-03T07:07:03.200Z,979.92
2022-09-03T07:08:03.235Z,979.88
2022-09-03T07:09:03.284Z,979.86
2022-09-03T07:10:03.284Z,979.91
2022-09-03T07:11:03.300Z,979.85
2022-09-03T07:12:03.399Z,979.74
2022-09-03T07:13:03.275Z,979.92
2022-09-03T07:14:03.333Z,979.76
2022-09-03T07:15:03.417Z,979.86
2022-09-03T07:16:03.473Z,979.86
2022-09-03T07:17:03.455Z,979.86
2022-09-03T07:18:03.362Z,979.83
2022-09-03T07:19:02.891Z,979.83
2022-09-03T07:20:03.097Z,979.85
2022-09-03T07:21:03.023Z,979.85
2022-09-03T07:22:03.104Z,979.82
2022-09-03T07:23:03.064Z,979.85
2022-09-03T07:24:03.687Z,979.95
2022-09-03T07:25:03.770Z,979.92
2022-09-03T07:26:03.748Z,979.95
2022-09-03T07:27:03.867Z,980.03
2022-09-03T07:28:03.905Z,979.88
2022-09-03T07:29:03.838Z,979.91
2022-09-03T07:30:03.027Z,979.91
2022-09-03T07:31:03.036Z,979.90
2022-09-03T07:32:03.281Z,979.98
2022-09-03T07:33:03.035Z,979.98
2022-09-03T07:34:03.722Z,979.92
2022-09-03T07:35:03.106Z,980.00
2022-09-03T07:36:03.214Z,979.91
2022-09-03T07:37:04.039Z,979.97
2022-09-03T07:38:03.489Z,980.11
2022-09-03T07:39:03.593Z,980.10
2022-09-03T07:40:03.905Z,980.01
2022-09-03T07:41:03.666Z,980.06
2022-09-03T07:42:03.776Z,980.06
2022-09-03T07:43:03.829Z,979.88
2022-09-03T07:44:03.908Z,979.99
2022-09-03T07:45:02.916Z,980.07
2022-09-03T07:46:04.853Z,980.04
2022-09-03T07:47:03.039Z,980.16
2022-09-03T07:48:03.076Z,980.15
2022-09-03T07:49:03.107Z,980.15
2022-09-03T07:50:03.191Z,980.26
2022-09-03T07:51:03.361Z,980.40
2022-09-03T07:52:03.332Z,980.31
2022-09-03T07:53:03.332Z,980.40
2022-09-03T07:54:03.312Z,980.40
2022-09-03T07:55:03.395Z,980.49
2022-09-03T07:56:03.885Z,980.63
2022-09-03T07:57:02.915Z,980.58
2022-09-03T07:58:03.007Z,980.61
2022-09-03T07:59:03.153Z,980.69
2022-09-03T08:00:03.609Z,980.61
2022-09-03T08:01:03.788Z,980.69
2022-09-03T08:02:03.765Z,980.69
2022-09-03T08:03:03.847Z,980.58
2022-09-03T08:04:03.939Z,980.72
2022-09-03T08:05:03.903Z,980.66
2022-09-03T08:06:03.814Z,980.72
2022-09-03T08:07:03.011Z,980.75
2022-09-03T08:08:05.430Z,980.77
2022-09-03T08:09:05.862Z,980.68
2022-09-03T08:10:03.003Z,980.62
2022-09-03T08:11:02.953Z,980.74
2022-09-03T08:12:03.180Z,980.74
2022-09-03T08:13:03.095Z,980.62
2022-09-03T08:14:03.093Z,980.65
2022-09-03T08:15:03.193Z,980.85
2022-09-03T08:16:03.435Z,980.71
2022-09-03T08:17:03.268Z,980.88
2022-09-03T08:18:06.311Z,980.74
2022-09-03T08:19:03.230Z,980.85
2022-09-03T08:20:03.324Z,980.74
2022-09-03T08:21:03.370Z,980.79
2022-09-03T08:22:03.324Z,980.82
2022-09-03T08:23:03.448Z,980.68
2022-09-03T08:24:03.522Z,980.88
2022-09-03T08:25:03.867Z,980.67
2022-09-03T08:26:03.826Z,980.70
2022-09-03T08:27:02.883Z,980.82
2022-09-03T08:28:03.574Z,980.64
2022-09-03T08:29:03.652Z,980.76
2022-09-03T08:30:03.755Z,980.79
2022-09-03T08:31:04.295Z,980.79
2022-09-03T08:32:05.823Z,980.76
2022-09-03T08:33:03.812Z,980.81
2022-09-03T08:34:03.921Z,980.79
2022-09-03T08:35:03.880Z,980.81
2022-09-03T08:36:03.887Z,980.67
2022-09-03T08:37:02.967Z,980.67
2022-09-03T08:38:02.966Z,980.90
2022-09-03T08:39:02.991Z,980.70
2022-09-03T08:40:03.340Z,980.75
2022-09-03T08:41:03.082Z,980.84
2022-09-03T08:42:03.186Z,980.87
2022-09-03T08:43:07.184Z,980.81
2022-09-03T08:44:03.693Z,980.78
2022-09-03T08:45:03.680Z,980.81
2022-09-03T08:46:03.883Z,980.93
2022-09-03T08:47:02.989Z,980.81
2022-09-03T08:48:02.931Z,980.90
2022-09-03T08:49:03.014Z,980.92
2022-09-03T08:50:03.057Z,980.95
2022-09-03T08:51:03.126Z,980.87
2022-09-03T08:52:03.153Z,980.81
2022-09-03T08:53:03.707Z,980.78
2022-09-03T08:54:03.788Z,980.89
2022-09-03T08:55:03.832Z,980.95
2022-09-03T08:56:03.750Z,980.98
2022-09-03T08:57:03.828Z,981.01
2022-09-03T08:58:02.983Z,980.98
2022-09-03T08:59:03.030Z,981.01
2022-09-03T09:00:02.987Z,981.04
2022-09-03T09:01:03.182Z,980.95
2022-09-03T09:02:03.376Z,981.01
2022-09-03T09:03:03.224Z,980.89
2022-09-03T09:04:03.123Z,980.95
2022-09-03T09:05:07.660Z,981.01
2022-09-03T09:06:03.351Z,981.01
2022-09-03T09:07:03.509Z,981.04
2022-09-03T09:08:03.587Z,980.98
2022-09-03T09:09:03.616Z,980.98
2022-09-03T09:10:03.668Z,981.09
2022-09-03T09:11:03.782Z,981.01
2022-09-03T09:12:04.826Z,981.07
2022-09-03T09:13:03.792Z,981.04
2022-09-03T09:14:03.930Z,981.01
2022-09-03T09:15:02.973Z,980.98
2022-09-03T09:16:03.064Z,980.97
2022-09-03T09:17:03.811Z,980.88
2022-09-03T09:18:03.918Z,980.77
2022-09-03T09:19:03.900Z,980.94
2022-09-03T09:20:02.881Z,980.76
2022-09-03T09:21:03.053Z,980.76
2022-09-03T09:22:03.196Z,980.73
2022-09-03T09:23:03.297Z,980.79
2022-09-03T09:24:03.320Z,980.85
2022-09-03T09:25:03.330Z,980.91
2022-09-03T09:26:03.346Z,980.94
2022-09-03T09:27:03.319Z,980.82
2022-09-03T09:28:03.399Z,980.88
2022-09-03T09:29:04.010Z,980.93
2022-09-03T09:30:03.416Z,980.82
2022-09-03T09:31:03.570Z,980.82
2022-09-03T09:32:03.361Z,980.67
2022-09-03T09:33:03.433Z,980.72
2022-09-03T09:34:03.383Z,980.72
2022-09-03T09:35:03.341Z,980.72
2022-09-03T09:36:03.312Z,980.84
2022-09-03T09:37:04.288Z,980.92
2022-09-03T09:38:03.738Z,980.81
2022-09-03T09:39:03.705Z,980.87
2022-09-03T09:40:03.893Z,980.81
2022-09-03T09:41:03.722Z,980.84
2022-09-03T09:42:03.662Z,980.78
2022-09-03T09:43:03.970Z,980.95
2022-09-03T09:44:03.849Z,980.89
2022-09-03T09:45:03.902Z,980.92
2022-09-03T09:46:03.099Z,980.80
2022-09-03T09:47:02.957Z,980.98
2022-09-03T09:48:03.179Z,980.95
2022-09-03T09:49:03.129Z,980.89
2022-09-03T09:50:03.132Z,981.04
2022-09-03T09:51:03.059Z,980.86
2022-09-03T09:52:03.165Z,980.80
2022-09-03T09:53:03.317Z,980.80
2022-09-03T09:54:03.298Z,980.83
2022-09-03T09:55:03.311Z,980.77
2022-09-03T09:56:03.378Z,980.92
2022-09-03T09:57:03.359Z,980.92
2022-09-03T09:58:03.394Z,980.74
2022-09-03T09:59:03.528Z,980.74
2022-09-03T10:00:03.630Z,980.74
2022-09-03T10:01:03.619Z,980.76
2022-09-03T10:02:03.817Z,980.88
2022-09-03T10:03:04.046Z,980.76
2022-09-03T10:04:03.863Z,980.82
2022-09-03T10:05:03.826Z,980.88
2022-09-03T10:06:03.842Z,980.88
2022-09-03T10:07:04.615Z,980.85
2022-09-03T10:08:03.834Z,980.85
2022-09-03T10:09:02.940Z,981.00
2022-09-03T10:10:03.298Z,980.94
2022-09-03T10:11:03.071Z,981.02
2022-09-03T10:12:03.132Z,981.11
2022-09-03T10:13:03.320Z,981.08
2022-09-03T10:14:03.390Z,981.00
2022-09-03T10:15:03.416Z,980.97
2022-09-03T10:16:03.570Z,980.85
2022-09-03T10:17:03.858Z,980.76
2022-09-03T10:18:03.404Z,980.94
2022-09-03T10:19:03.586Z,980.94
2022-09-03T10:20:03.551Z,980.88
2022-09-03T10:21:03.575Z,980.94
2022-09-03T10:22:03.539Z,980.88
2022-09-03T10:23:03.606Z,980.79
2022-09-03T10:24:07.850Z,980.73
2022-09-03T10:25:03.848Z,980.76
2022-09-03T10:26:03.955Z,980.85
2022-09-03T10:27:03.862Z,980.94
2022-09-03T10:28:02.987Z,980.79
2022-09-03T10:29:03.005Z,980.79
2022-09-03T10:30:03.053Z,980.79
2022-09-03T10:31:03.163Z,980.82
2022-09-03T10:32:03.129Z,980.70
2022-09-03T10:33:03.199Z,980.88
2022-09-03T10:34:03.295Z,980.79
2022-09-03T10:35:03.481Z,980.90
2022-09-03T10:36:03.439Z,980.70
2022-09-03T10:37:03.519Z,980.73
2022-09-03T10:38:03.568Z,980.76
2022-09-03T10:39:03.621Z,980.70
2022-09-03T10:40:03.858Z,980.64
2022-09-03T10:41:03.928Z,980.67
2022-09-03T10:42:02.961Z,980.61
2022-09-03T10:43:02.937Z,980.69
2022-09-03T10:44:03.101Z,980.63
2022-09-03T10:45:03.052Z,980.66
2022-09-03T10:46:03.148Z,980.52
2022-09-03T10:47:03.063Z,980.57
2022-09-03T10:48:02.957Z,980.60
2022-09-03T10:49:03.087Z,980.75
2022-09-03T10:50:03.124Z,980.63
2022-09-03T10:51:03.062Z,980.75
2022-09-03T10:52:03.135Z,980.74
2022-09-03T10:53:03.192Z,980.60
2022-09-03T10:54:03.255Z,980.57
2022-09-03T10:55:03.180Z,980.62
2022-09-03T10:56:03.246Z,980.71
2022-09-03T10:57:03.348Z,980.50
2022-09-03T10:58:03.379Z,980.65
2022-09-03T10:59:03.374Z,980.56
2022-09-03T11:00:03.354Z,980.68
2022-09-03T11:01:03.401Z,980.47
2022-09-03T11:02:03.357Z,980.65
2022-09-03T11:03:03.677Z,980.50
2022-09-03T11:04:03.452Z,980.65
2022-09-03T11:05:03.416Z,980.59
2022-09-03T11:06:03.434Z,980.53
2022-09-03T11:07:04.489Z,980.62
2022-09-03T11:08:03.480Z,980.56
2022-09-03T11:09:06.923Z,980.68
2022-09-03T11:10:03.529Z,980.62
2022-09-03T11:11:03.577Z,980.62
2022-09-03T11:12:03.507Z,980.50
2022-09-03T11:13:03.657Z,980.50
2022-09-03T11:14:03.607Z,980.39
2022-09-03T11:15:03.733Z,980.38
2022-09-03T11:16:03.907Z,980.47
2022-09-03T11:17:03.825Z,980.38
2022-09-03T11:18:03.852Z,980.50
2022-09-03T11:19:03.752Z,980.47
2022-09-03T11:20:03.782Z,980.32
2022-09-03T11:21:04.609Z,980.35
2022-09-03T11:22:03.963Z,980.38
2022-09-03T11:23:03.855Z,980.41
2022-09-03T11:24:03.816Z,980.38
2022-09-03T11:25:02.938Z,980.47
2022-09-03T11:26:03.089Z,980.38
2022-09-03T11:27:03.019Z,980.38
2022-09-03T11:28:03.076Z,980.35
2022-09-03T11:29:03.192Z,980.41
2022-09-03T11:30:03.325Z,980.47
2022-09-03T11:31:03.578Z,980.16
2022-09-03T11:32:03.324Z,980.23
2022-09-03T11:33:03.277Z,980.32
2022-09-03T11:34:03.302Z,980.35
2022-09-03T11:35:03.308Z,980.35
2022-09-03T11:36:03.433Z,980.32
2022-09-03T11:37:03.507Z,980.26
2022-09-03T11:38:03.537Z,980.09
2022-09-03T11:39:03.567Z,980.15
2022-09-03T11:40:03.837Z,980.18
2022-09-03T11:41:03.595Z,980.06
2022-09-03T11:42:03.743Z,980.12
2022-09-03T11:43:03.732Z,980.17
2022-09-03T11:44:05.036Z,980.11
2022-09-03T11:45:03.690Z,980.28
2022-09-03T11:46:03.960Z,980.17
2022-09-03T11:47:03.778Z,980.14
2022-09-03T11:48:03.911Z,980.14
2022-09-03T11:49:02.976Z,980.08
2022-09-03T11:50:02.953Z,980.25
2022-09-03T11:51:03.085Z,980.08
2022-09-03T11:52:03.187Z,980.17
2022-09-03T11:53:03.530Z,980.11
2022-09-03T11:54:03.293Z,980.08
2022-09-03T11:55:03.199Z,980.11
2022-09-03T11:56:05.545Z,980.27
2022-09-03T11:57:03.339Z,980.21
2022-09-03T11:58:03.312Z,980.21
2022-09-03T11:59:03.440Z,980.10
2022-09-03T12:00:03.554Z,980.13
2022-09-03T12:01:03.689Z,980.13
2022-09-03T12:02:03.928Z,980.01
2022-09-03T12:03:04.107Z,980.04
2022-09-03T12:04:03.954Z,979.98
2022-09-03T12:05:04.041Z,980.04
2022-09-03T12:06:03.912Z,980.04
2022-09-03T12:07:02.971Z,980.10
2022-09-03T12:08:09.180Z,979.95
2022-09-03T12:09:03.035Z,979.98
2022-09-03T12:10:03.067Z,980.07
2022-09-03T12:11:03.280Z,980.01
2022-09-03T12:12:05.986Z,980.01
2022-09-03T12:13:03.333Z,980.01
2022-09-03T12:14:03.427Z,980.04
2022-09-03T12:15:03.557Z,979.92
2022-09-03T12:16:03.708Z,980.01
2022-09-03T12:17:03.758Z,979.92
2022-09-03T12:18:03.891Z,980.01
2022-09-03T12:19:02.986Z,980.03
2022-09-03T12:20:02.930Z,979.94
2022-09-03T12:21:03.909Z,980.06
2022-09-03T12:22:03.901Z,980.00
2022-09-03T12:23:03.855Z,979.94
2022-09-03T12:24:02.983Z,979.94
2022-09-03T12:25:02.919Z,980.09
2022-09-03T12:26:02.930Z,980.03
2022-09-03T12:27:03.010Z,980.00
2022-09-03T12:28:03.028Z,979.97